createdAt,value
2017-02-15T00:00:42.651Z,1030.58
2017-02-15T00:01:42.587Z,1030.56
2017-02-15T00:02:42.525Z,1030.53
2017-02-15T00:03:42.458Z,1030.51
2017-02-15T00:04:42.396Z,1030.52
2017-02-15T00:05:42.332Z,1030.49
2017-02-15T00:06:42.269Z,1030.49
2017-02-15T00:07:42.205Z,1030.52
2017-02-15T00:08:42.141Z,1030.49
2017-02-15T00:09:42.078Z,1030.53
2017-02-15T00:10:42.015Z,1030.51
2017-02-15T00:11:41.951Z,1030.55
2017-02-15T00:12:41.888Z,1030.52
2017-02-15T00:13:41.823Z,1030.56
2017-02-15T00:14:41.761Z,1030.55
2017-02-15T00:15:41.697Z,1030.59
2017-02-15T00:16:41.632Z,1030.55
2017-02-15T00:17:41.570Z,1030.56
2017-02-15T00:18:41.504Z,1030.53
2017-02-15T00:19:41.442Z,1030.55
2017-02-15T00:20:41.378Z,1030.55
2017-02-15T00:21:41.316Z,1030.52
2017-02-15T00:22:41.251Z,1030.53
2017-02-15T00:23:41.186Z,1030.51
2017-02-15T00:24:41.124Z,1030.51
2017-02-15T00:25:41.060Z,1030.57
2017-02-15T00:26:40.996Z,1030.6
2017-02-15T00:27:40.932Z,1030.57
2017-02-15T00:28:40.868Z,1030.58
2017-02-15T00:29:40.805Z,1030.56
2017-02-15T00:30:40.742Z,1030.54
2017-02-15T00:31:40.678Z,1030.57
2017-02-15T00:32:40.615Z,1030.59
2017-02-15T00:33:40.549Z,1030.54
2017-02-15T00:34:40.492Z,1030.55
2017-02-15T00:35:40.423Z,1030.58
2017-02-15T00:36:40.359Z,1030.62
2017-02-15T00:37:40.297Z,1030.58
2017-02-15T00:38:40.233Z,1030.61
2017-02-15T00:39:40.169Z,1030.59
2017-02-15T00:40:40.104Z,1030.57
2017-02-15T00:41:40.041Z,1030.57
2017-02-15T00:42:39.977Z,1030.58
2017-02-15T00:43:39.914Z,1030.54
2017-02-15T00:44:39.851Z,1030.58
2017-02-15T00:45:39.788Z,1030.56
2017-02-15T00:46:39.725Z,1030.55
2017-02-15T00:47:39.662Z,1030.51
2017-02-15T00:48:39.597Z,1030.52
2017-02-15T00:49:39.533Z,1030.5
2017-02-15T00:50:39.469Z,1030.53
2017-02-15T00:51:39.406Z,1030.52
2017-02-15T00:52:39.342Z,1030.5
2017-02-15T00:53:39.283Z,1030.5
2017-02-15T00:54:39.215Z,1030.51
2017-02-15T00:55:39.151Z,1030.52
2017-02-15T00:56:39.088Z,1030.46
2017-02-15T00:57:39.023Z,1030.45
2017-02-15T00:58:38.959Z,1030.46
2017-02-15T00:59:38.896Z,1030.45
2017-02-15T01:01:10.838Z,1030.42
2017-02-15T01:02:10.415Z,1030.44
2017-02-15T01:03:10.348Z,1030.44
2017-02-15T01:04:10.287Z,1030.45
2017-02-15T01:05:10.222Z,1030.43
2017-02-15T01:06:10.158Z,1030.41
2017-02-15T01:07:10.094Z,1030.44
2017-02-15T01:08:10.029Z,1030.39
2017-02-15T01:09:09.970Z,1030.42
2017-02-15T01:10:09.904Z,1030.37
2017-02-15T01:11:09.839Z,1030.42
2017-02-15T01:12:09.784Z,1030.39
2017-02-15T01:13:09.712Z,1030.38
2017-02-15T01:14:09.648Z,1030.41
2017-02-15T01:15:09.585Z,1030.43
2017-02-15T01:16:09.521Z,1030.39
2017-02-15T01:17:09.458Z,1030.43
2017-02-15T01:18:09.393Z,1030.41
2017-02-15T01:19:09.329Z,1030.4
2017-02-15T01:20:09.267Z,1030.4
2017-02-15T01:21:09.203Z,1030.39
2017-02-15T01:22:09.139Z,1030.36
2017-02-15T01:23:09.076Z,1030.35
2017-02-15T01:24:09.011Z,1030.34
2017-02-15T01:25:08.948Z,1030.32
2017-02-15T01:26:08.883Z,1030.35
2017-02-15T01:27:08.819Z,1030.35
2017-02-15T01:28:08.756Z,1030.39
2017-02-15T01:29:08.694Z,1030.33
2017-02-15T01:30:08.629Z,1030.35
2017-02-15T01:31:08.567Z,1030.35
2017-02-15T01:32:08.502Z,1030.4
2017-02-15T01:33:08.438Z,1030.38
2017-02-15T01:34:08.375Z,1030.36
2017-02-15T01:35:08.311Z,1030.36
2017-02-15T01:36:08.247Z,1030.31
2017-02-15T01:37:08.184Z,1030.33
2017-02-15T01:38:08.123Z,1030.33
2017-02-15T01:39:08.057Z,1030.33
2017-02-15T01:40:07.992Z,1030.29
2017-02-15T01:41:07.928Z,1030.3
2017-02-15T01:42:07.865Z,1030.25
2017-02-15T01:43:07.802Z,1030.25
2017-02-15T01:44:07.750Z,1030.29
2017-02-15T01:45:07.674Z,1030.27
2017-02-15T01:46:07.612Z,1030.25
2017-02-15T01:47:07.547Z,1030.28
2017-02-15T01:48:07.481Z,1030.3
2017-02-15T01:49:07.420Z,1030.27
2017-02-15T01:50:07.356Z,1030.32
2017-02-15T01:51:07.294Z,1030.27
2017-02-15T01:52:07.229Z,1030.32
2017-02-15T01:53:07.165Z,1030.26
2017-02-15T01:54:07.102Z,1030.26
2017-02-15T01:55:07.038Z,1030.26
2017-02-15T01:56:06.973Z,1030.27
2017-02-15T01:57:06.911Z,1030.28
2017-02-15T01:58:06.848Z,1030.25
2017-02-15T01:59:06.783Z,1030.3
2017-02-15T02:00:06.970Z,1030.26
2017-02-15T02:01:06.656Z,1030.26
2017-02-15T02:02:06.593Z,1030.28
2017-02-15T02:03:06.557Z,1030.31
2017-02-15T02:04:06.465Z,1030.28
2017-02-15T02:05:06.402Z,1030.26
2017-02-15T02:06:06.337Z,1030.23
2017-02-15T02:07:06.275Z,1030.25
2017-02-15T02:08:06.210Z,1030.24
2017-02-15T02:09:06.147Z,1030.2
2017-02-15T02:10:06.083Z,1030.23
2017-02-15T02:11:06.019Z,1030.2
2017-02-15T02:12:05.956Z,1030.19
2017-02-15T02:13:05.892Z,1030.18
2017-02-15T02:14:05.828Z,1030.14
2017-02-15T02:15:05.764Z,1030.15
2017-02-15T02:16:05.704Z,1030.17
2017-02-15T02:17:05.637Z,1030.15
2017-02-15T02:18:05.572Z,1030.15
2017-02-15T02:19:05.510Z,1030.15
2017-02-15T02:20:05.446Z,1030.13
2017-02-15T02:21:05.396Z,1030.16
2017-02-15T02:22:05.318Z,1030.14
2017-02-15T02:23:05.254Z,1030.15
2017-02-15T02:24:05.192Z,1030.17
2017-02-15T02:25:05.127Z,1030.15
2017-02-15T02:26:05.062Z,1030.14
2017-02-15T02:27:05.000Z,1030.12
2017-02-15T02:28:04.938Z,1030.11
2017-02-15T02:29:04.871Z,1030.07
2017-02-15T02:30:05.060Z,1030.1
2017-02-15T02:31:04.745Z,1030.07
2017-02-15T02:32:04.682Z,1030.05
2017-02-15T02:33:04.618Z,1030.07
2017-02-15T02:34:04.558Z,1030.06
2017-02-15T02:35:04.493Z,1030.06
2017-02-15T02:36:04.427Z,1030.06
2017-02-15T02:37:04.364Z,1030.03
2017-02-15T02:38:04.301Z,1030.06
2017-02-15T02:39:04.236Z,1030.03
2017-02-15T02:40:04.174Z,1030.03
2017-02-15T02:41:04.112Z,1030.05
2017-02-15T02:42:04.047Z,1030.01
2017-02-15T02:43:03.982Z,1030
2017-02-15T02:44:03.919Z,1030.02
2017-02-15T02:45:03.856Z,1030
2017-02-15T02:46:03.791Z,1029.99
2017-02-15T02:47:03.728Z,1030
2017-02-15T02:48:03.665Z,1030
2017-02-15T02:49:03.603Z,1029.99
2017-02-15T02:50:03.538Z,1029.99
2017-02-15T02:51:03.499Z,1029.98
2017-02-15T02:52:03.411Z,1030.02
2017-02-15T02:53:03.347Z,1030
2017-02-15T02:54:03.283Z,1030
2017-02-15T02:55:03.221Z,1030.01
2017-02-15T02:56:03.157Z,1030.06
2017-02-15T02:57:03.092Z,1030.03
2017-02-15T02:58:03.030Z,1030.04
2017-02-15T02:59:02.966Z,1030.05
2017-02-15T03:00:02.903Z,1030.09
2017-02-15T03:01:02.852Z,1030.08
2017-02-15T03:02:02.775Z,1030.05
2017-02-15T03:03:02.713Z,1030.07
2017-02-15T03:04:02.648Z,1030.01
2017-02-15T03:05:02.585Z,1030.02
2017-02-15T03:06:02.522Z,1030.01
2017-02-15T03:07:02.458Z,1030.03
2017-02-15T03:08:02.395Z,1030
2017-02-15T03:09:02.331Z,1030.04
2017-02-15T03:10:02.268Z,1030.01
2017-02-15T03:11:02.204Z,1030.01
2017-02-15T03:12:02.140Z,1030.01
2017-02-15T03:13:02.077Z,1030
2017-02-15T03:14:02.013Z,1030.02
2017-02-15T03:15:01.952Z,1030.08
2017-02-15T03:16:01.887Z,1030.04
2017-02-15T03:17:01.823Z,1030.06
2017-02-15T03:18:01.763Z,1030.07
2017-02-15T03:19:01.696Z,1030.04
2017-02-15T03:20:01.632Z,1030.05
2017-02-15T03:21:01.569Z,1030.04
2017-02-15T03:22:01.506Z,1030.05
2017-02-15T03:23:01.443Z,1030.04
2017-02-15T03:24:01.378Z,1030.08
2017-02-15T03:25:01.320Z,1030.08
2017-02-15T03:26:01.252Z,1030.08
2017-02-15T03:27:01.188Z,1030.08
2017-02-15T03:28:01.125Z,1030.04
2017-02-15T03:29:01.061Z,1030.06
2017-02-15T03:30:00.997Z,1030.07
2017-02-15T03:31:00.934Z,1030.03
2017-02-15T03:32:00.871Z,1030.03
2017-02-15T03:33:00.808Z,1030.01
2017-02-15T03:34:00.744Z,1030.02
2017-02-15T03:35:00.681Z,1030
2017-02-15T03:36:00.617Z,1030.03
2017-02-15T03:37:00.554Z,1030.01
2017-02-15T03:38:00.493Z,1030.04
2017-02-15T03:39:00.429Z,1030.02
2017-02-15T03:40:00.363Z,1030.05
2017-02-15T03:41:00.300Z,1030.02
2017-02-15T03:42:00.236Z,1030.03
2017-02-15T03:43:00.172Z,1030.07
2017-02-15T03:44:00.109Z,1030.05
2017-02-15T03:45:00.046Z,1030.04
2017-02-15T03:45:59.983Z,1030.05
2017-02-15T03:46:59.919Z,1030.05
2017-02-15T03:47:59.856Z,1030.04
2017-02-15T03:48:59.792Z,1030.05
2017-02-15T03:49:59.729Z,1030.05
2017-02-15T03:50:59.665Z,1030.02
2017-02-15T03:51:59.601Z,1030.04
2017-02-15T03:52:59.539Z,1030.01
2017-02-15T03:53:59.476Z,1030.03
2017-02-15T03:54:59.423Z,1030.01
2017-02-15T03:55:59.347Z,1030.01
2017-02-15T03:56:59.284Z,1029.96
2017-02-15T03:57:59.224Z,1029.99
2017-02-15T03:58:59.157Z,1029.94
2017-02-15T03:59:59.108Z,1029.95
2017-02-15T04:00:59.030Z,1029.94
2017-02-15T04:01:58.967Z,1029.92
2017-02-15T04:02:58.902Z,1029.94
2017-02-15T04:03:58.838Z,1029.93
2017-02-15T04:04:58.775Z,1029.92
2017-02-15T04:05:58.713Z,1029.88
2017-02-15T04:06:58.648Z,1029.89
2017-02-15T04:07:58.585Z,1029.91
2017-02-15T04:08:58.522Z,1029.95
2017-02-15T04:09:58.458Z,1029.96
2017-02-15T04:10:58.395Z,1029.89
2017-02-15T04:11:58.332Z,1029.92
2017-02-15T04:12:58.269Z,1029.93
2017-02-15T04:13:58.205Z,1029.87
2017-02-15T04:14:58.141Z,1029.91
2017-02-15T04:15:58.077Z,1029.89
2017-02-15T04:16:58.016Z,1029.91
2017-02-15T04:17:57.951Z,1029.89
2017-02-15T04:18:57.889Z,1029.89
2017-02-15T04:19:57.827Z,1029.91
2017-02-15T04:20:57.759Z,1029.91
2017-02-15T04:21:57.697Z,1029.96
2017-02-15T04:22:57.633Z,1029.95
2017-02-15T04:23:57.569Z,1029.94
2017-02-15T04:24:57.505Z,1029.97
2017-02-15T04:25:57.443Z,1029.97
2017-02-15T04:26:57.378Z,1029.97
2017-02-15T04:27:57.315Z,1029.93
2017-02-15T04:28:57.251Z,1029.98
2017-02-15T04:29:57.188Z,1029.95
2017-02-15T04:30:57.125Z,1029.95
2017-02-15T04:31:57.060Z,1029.95
2017-02-15T04:32:56.999Z,1029.98
2017-02-15T04:33:56.934Z,1029.99
2017-02-15T04:34:56.870Z,1029.97
2017-02-15T04:35:56.807Z,1029.97
2017-02-15T04:36:56.743Z,1029.99
2017-02-15T04:37:56.679Z,1029.98
2017-02-15T04:38:56.618Z,1029.93
2017-02-15T04:39:56.553Z,1029.93
2017-02-15T04:40:56.489Z,1029.92
2017-02-15T04:41:56.425Z,1029.85
2017-02-15T04:42:56.360Z,1029.87
2017-02-15T04:43:56.297Z,1029.84
2017-02-15T04:44:56.234Z,1029.82
2017-02-15T04:45:56.171Z,1029.85
2017-02-15T04:46:56.107Z,1029.82
2017-02-15T04:47:56.043Z,1029.79
2017-02-15T04:48:55.980Z,1029.77
2017-02-15T04:49:55.917Z,1029.78
2017-02-15T04:50:55.852Z,1029.78
2017-02-15T04:51:55.789Z,1029.8
2017-02-15T04:52:55.726Z,1029.81
2017-02-15T04:53:55.661Z,1029.8
2017-02-15T04:54:55.599Z,1029.82
2017-02-15T04:55:55.535Z,1029.8
2017-02-15T04:56:55.472Z,1029.8
2017-02-15T04:57:55.407Z,1029.76
2017-02-15T04:58:55.344Z,1029.79
2017-02-15T04:59:55.281Z,1029.75
2017-02-15T05:00:55.217Z,1029.8
2017-02-15T05:01:55.153Z,1030.32
2017-02-15T05:02:55.089Z,1030.42
2017-02-15T05:03:55.041Z,1030.1
2017-02-15T05:04:54.961Z,1030.05
2017-02-15T05:05:54.898Z,1030.03
2017-02-15T05:06:54.835Z,1030.05
2017-02-15T05:07:54.772Z,1030.13
2017-02-15T05:08:54.707Z,1030.08
2017-02-15T05:09:54.644Z,1030.11
2017-02-15T05:10:54.581Z,1030.06
2017-02-15T05:11:54.517Z,1030.05
2017-02-15T05:12:54.454Z,1030.04
2017-02-15T05:13:54.390Z,1030.05
2017-02-15T05:14:54.327Z,1030.04
2017-02-15T05:15:54.263Z,1030.02
2017-02-15T05:16:54.198Z,1030.03
2017-02-15T05:17:54.136Z,1030
2017-02-15T05:18:54.071Z,1029.99
2017-02-15T05:19:54.013Z,1029.96
2017-02-15T05:20:53.944Z,1029.95
2017-02-15T05:21:53.882Z,1029.96
2017-02-15T05:22:53.817Z,1029.95
2017-02-15T05:23:53.753Z,1029.97
2017-02-15T05:24:53.689Z,1030
2017-02-15T05:25:53.627Z,1029.97
2017-02-15T05:26:53.563Z,1030.03
2017-02-15T05:27:53.501Z,1029.99
2017-02-15T05:28:53.436Z,1029.98
2017-02-15T05:29:53.372Z,1030.03
2017-02-15T05:30:53.307Z,1030
2017-02-15T05:31:53.245Z,1029.98
2017-02-15T05:32:53.180Z,1029.97
2017-02-15T05:33:53.117Z,1029.99
2017-02-15T05:34:53.052Z,1030
2017-02-15T05:35:52.993Z,1029.99
2017-02-15T05:36:52.926Z,1029.98
2017-02-15T05:37:52.861Z,1029.96
2017-02-15T05:38:52.797Z,1029.95
2017-02-15T05:39:52.734Z,1029.98
2017-02-15T05:40:52.671Z,1030.03
2017-02-15T05:41:52.607Z,1030.04
2017-02-15T05:42:52.543Z,1030.06
2017-02-15T05:43:52.480Z,1030.05
2017-02-15T05:44:52.416Z,1030.04
2017-02-15T05:45:52.353Z,1030.07
2017-02-15T05:46:52.289Z,1030.08
2017-02-15T05:47:52.227Z,1030.09
2017-02-15T05:48:52.162Z,1030.1
2017-02-15T05:49:52.097Z,1030.09
2017-02-15T05:50:52.035Z,1030.09
2017-02-15T05:51:51.972Z,1030.08
2017-02-15T05:52:51.907Z,1030.09
2017-02-15T05:53:51.843Z,1030.1
2017-02-15T05:54:51.780Z,1030.09
2017-02-15T05:55:51.716Z,1029.99
2017-02-15T05:56:51.651Z,1029.98
2017-02-15T05:57:51.588Z,1029.97
2017-02-15T05:58:51.524Z,1030.01
2017-02-15T05:59:51.463Z,1030
2017-02-15T06:00:51.397Z,1030.05
2017-02-15T06:01:51.345Z,1030.07
2017-02-15T06:02:51.269Z,1030.04
2017-02-15T06:03:51.205Z,1030.07
2017-02-15T06:04:51.141Z,1030.14
2017-02-15T06:05:51.078Z,1030.09
2017-02-15T06:06:51.015Z,1030.12
2017-02-15T06:07:50.949Z,1030.11
2017-02-15T06:08:50.886Z,1030.16
2017-02-15T06:09:50.824Z,1030.14
2017-02-15T06:10:50.764Z,1030.17
2017-02-15T06:11:50.695Z,1030.18
2017-02-15T06:12:50.632Z,1030.17
2017-02-15T06:13:50.567Z,1030.17
2017-02-15T06:14:50.503Z,1030.19
2017-02-15T06:15:50.440Z,1030.18
2017-02-15T06:16:50.377Z,1030.17
2017-02-15T06:17:50.312Z,1030.19
2017-02-15T06:18:50.248Z,1030.21
2017-02-15T06:19:50.185Z,1030.18
2017-02-15T06:20:50.121Z,1030.18
2017-02-15T06:21:50.057Z,1030.18
2017-02-15T06:22:49.992Z,1030.16
2017-02-15T06:23:49.930Z,1030.16
2017-02-15T06:24:49.871Z,1030.16
2017-02-15T06:25:49.802Z,1030.17
2017-02-15T06:26:49.738Z,1030.19
2017-02-15T06:27:49.674Z,1030.2
2017-02-15T06:28:49.609Z,1030.22
2017-02-15T06:29:49.548Z,1030.21
2017-02-15T06:30:49.483Z,1030.27
2017-02-15T06:31:49.418Z,1030.21
2017-02-15T06:32:49.354Z,1030.26
2017-02-15T06:33:49.291Z,1030.24
2017-02-15T06:34:49.227Z,1030.24
2017-02-15T06:35:49.164Z,1030.24
2017-02-15T06:36:49.099Z,1030.26
2017-02-15T06:37:49.035Z,1030.28
2017-02-15T06:38:48.972Z,1030.25
2017-02-15T06:39:48.908Z,1030.24
2017-02-15T06:40:48.843Z,1030.31
2017-02-15T06:41:48.783Z,1030.25
2017-02-15T06:42:48.717Z,1030.24
2017-02-15T06:43:48.652Z,1030.29
2017-02-15T06:44:48.591Z,1030.27
2017-02-15T06:45:48.524Z,1030.33
2017-02-15T06:46:48.461Z,1030.31
2017-02-15T06:47:48.396Z,1030.27
2017-02-15T06:48:48.332Z,1030.29
2017-02-15T06:49:48.270Z,1030.3
2017-02-15T06:50:48.205Z,1030.28
2017-02-15T06:51:48.142Z,1030.27
2017-02-15T06:52:48.077Z,1030.26
2017-02-15T06:53:48.014Z,1030.26
2017-02-15T06:54:47.961Z,1030.3
2017-02-15T06:55:47.885Z,1030.24
2017-02-15T06:56:47.822Z,1030.24
2017-02-15T06:57:47.757Z,1030.26
2017-02-15T06:58:47.695Z,1030.25
2017-02-15T06:59:47.630Z,1030.28
2017-02-15T07:00:47.568Z,1030.27
2017-02-15T07:01:47.503Z,1030.25
2017-02-15T07:02:47.438Z,1030.22
2017-02-15T07:03:47.375Z,1030.26
2017-02-15T07:04:47.311Z,1030.21
2017-02-15T07:05:47.248Z,1030.24
2017-02-15T07:06:47.197Z,1030.18
2017-02-15T07:07:47.119Z,1030.24
2017-02-15T07:08:47.057Z,1030.23
2017-02-15T07:09:46.992Z,1030.23
2017-02-15T07:10:46.927Z,1030.23
2017-02-15T07:11:46.864Z,1030.22
2017-02-15T07:12:46.800Z,1030.23
2017-02-15T07:13:46.736Z,1030.25
2017-02-15T07:14:46.672Z,1030.26
2017-02-15T07:15:46.609Z,1030.23
2017-02-15T07:16:46.544Z,1030.26
2017-02-15T07:17:46.480Z,1030.3
2017-02-15T07:18:46.416Z,1030.29
2017-02-15T07:19:46.353Z,1030.35
2017-02-15T07:20:46.289Z,1030.34
2017-02-15T07:21:46.226Z,1030.37
2017-02-15T07:22:46.162Z,1030.37
2017-02-15T07:23:46.097Z,1030.38
2017-02-15T07:24:46.034Z,1030.36
2017-02-15T07:25:45.969Z,1030.37
2017-02-15T07:26:45.907Z,1030.3
2017-02-15T07:27:45.842Z,1030.37
2017-02-15T07:28:45.779Z,1030.35
2017-02-15T07:29:45.715Z,1030.38
2017-02-15T07:30:45.649Z,1030.33
2017-02-15T07:31:45.587Z,1030.35
2017-02-15T07:32:45.523Z,1030.39
2017-02-15T07:33:45.459Z,1030.42
2017-02-15T07:34:45.396Z,1030.39
2017-02-15T07:35:45.333Z,1030.41
2017-02-15T07:36:45.267Z,1030.43
2017-02-15T07:37:45.204Z,1030.44
2017-02-15T07:38:45.139Z,1030.41
2017-02-15T07:39:45.076Z,1030.41
2017-02-15T07:40:45.013Z,1030.39
2017-02-15T07:41:44.949Z,1030.42
2017-02-15T07:42:44.884Z,1030.43
2017-02-15T07:43:44.819Z,1030.36
2017-02-15T07:44:44.756Z,1030.38
2017-02-15T07:45:44.692Z,1030.39
2017-02-15T07:46:44.627Z,1030.39
2017-02-15T07:47:44.565Z,1030.35
2017-02-15T07:48:44.500Z,1030.39
2017-02-15T07:49:44.436Z,1030.41
2017-02-15T07:50:44.371Z,1030.36
2017-02-15T07:51:44.308Z,1030.38
2017-02-15T07:52:44.243Z,1030.38
2017-02-15T07:53:44.179Z,1030.37
2017-02-15T07:54:44.116Z,1030.36
2017-02-15T07:55:44.052Z,1030.31
2017-02-15T07:56:43.987Z,1030.34
2017-02-15T07:57:43.925Z,1030.34
2017-02-15T07:58:43.861Z,1030.31
2017-02-15T07:59:43.886Z,1030.32
2017-02-15T08:00:44.036Z,1030.33
2017-02-15T08:01:43.684Z,1030.34
2017-02-15T08:02:43.605Z,1030.36
2017-02-15T08:03:43.543Z,1030.36
2017-02-15T08:04:43.483Z,1030.34
2017-02-15T08:05:43.413Z,1030.35
2017-02-15T08:06:43.350Z,1030.38
2017-02-15T08:07:43.285Z,1030.36
2017-02-15T08:08:43.221Z,1030.39
2017-02-15T08:09:43.161Z,1030.35
2017-02-15T08:10:43.094Z,1030.34
2017-02-15T08:11:43.031Z,1030.34
2017-02-15T08:12:42.967Z,1030.34
2017-02-15T08:13:42.902Z,1030.35
2017-02-15T08:14:42.839Z,1030.35
2017-02-15T08:15:42.774Z,1030.38
2017-02-15T08:16:42.711Z,1030.37
2017-02-15T08:17:42.650Z,1030.41
2017-02-15T08:18:42.586Z,1030.43
2017-02-15T08:19:42.518Z,1030.44
2017-02-15T08:20:42.457Z,1030.43
2017-02-15T08:21:42.393Z,1030.39
2017-02-15T08:22:42.337Z,1030.35
2017-02-15T08:23:42.267Z,1030.3
2017-02-15T08:24:42.201Z,1030.25
2017-02-15T08:25:42.135Z,1030.28
2017-02-15T08:26:42.073Z,1030.22
2017-02-15T08:27:42.009Z,1030.21
2017-02-15T08:28:42.196Z,1030.21
2017-02-15T08:29:41.881Z,1030.25
2017-02-15T08:30:41.818Z,1030.23
2017-02-15T08:31:41.754Z,1030.23
2017-02-15T08:32:41.692Z,1030.26
2017-02-15T08:33:41.626Z,1030.23
2017-02-15T08:34:41.564Z,1030.23
2017-02-15T08:35:41.800Z,1030.24
2017-02-15T08:36:41.436Z,1030.21
2017-02-15T08:37:41.379Z,1030.2
2017-02-15T08:38:41.309Z,1030.19
2017-02-15T08:39:41.245Z,1030.17
2017-02-15T08:40:41.281Z,1030.14
2017-02-15T08:41:41.117Z,1030.13
2017-02-15T08:42:41.054Z,1030.14
2017-02-15T08:43:40.990Z,1030.13
2017-02-15T08:44:40.927Z,1030.15
2017-02-15T08:45:40.862Z,1030.11
2017-02-15T08:46:40.800Z,1030.15
2017-02-15T08:47:40.742Z,1030.08
2017-02-15T08:48:40.671Z,1030.14
2017-02-15T08:49:40.609Z,1030.15
2017-02-15T08:50:40.845Z,1030.16
2017-02-15T08:51:40.481Z,1030.15
2017-02-15T08:52:40.418Z,1030.17
2017-02-15T08:53:40.353Z,1030.17
2017-02-15T08:54:40.289Z,1030.18
2017-02-15T08:55:40.225Z,1030.17
2017-02-15T08:56:40.162Z,1030.19
2017-02-15T08:57:40.100Z,1030.15
2017-02-15T08:58:40.046Z,1030.2
2017-02-15T08:59:39.972Z,1030.15
2017-02-15T09:00:40.159Z,1030.19
2017-02-15T09:01:39.858Z,1030.16
2017-02-15T09:02:39.813Z,1030.15
2017-02-15T09:03:39.719Z,1030.14
2017-02-15T09:04:39.655Z,1030.12
2017-02-15T09:05:39.602Z,1030.12
2017-02-15T09:06:39.526Z,1030.09
2017-02-15T09:07:39.463Z,1030.09
2017-02-15T09:08:39.403Z,1030.11
2017-02-15T09:09:39.335Z,1030.08
2017-02-15T09:10:39.272Z,1030.05
2017-02-15T09:11:39.209Z,1030.07
2017-02-15T09:12:39.145Z,1030.05
2017-02-15T09:13:39.081Z,1030.04
2017-02-15T09:14:39.111Z,1030.08
2017-02-15T09:15:38.955Z,1030.05
2017-02-15T09:16:38.890Z,1030.06
2017-02-15T09:17:38.826Z,1030.07
2017-02-15T09:18:38.764Z,1030.03
2017-02-15T09:19:38.699Z,1030.05
2017-02-15T09:20:38.636Z,1030.03
2017-02-15T09:21:38.573Z,1030.02
2017-02-15T09:22:38.587Z,1029.97
2017-02-15T09:23:38.447Z,1030.02
2017-02-15T09:24:38.381Z,1030.02
2017-02-15T09:25:38.396Z,1030.01
2017-02-15T09:26:38.254Z,1030
2017-02-15T09:27:38.189Z,1030.02
2017-02-15T09:28:38.126Z,1030.05
2017-02-15T09:29:38.063Z,1030.04
2017-02-15T09:30:38.023Z,1030.03
2017-02-15T09:31:37.937Z,1030.02
2017-02-15T09:32:37.873Z,1030.06
2017-02-15T09:33:37.817Z,1030.02
2017-02-15T09:34:37.745Z,1029.99
2017-02-15T09:35:37.831Z,1029.99
2017-02-15T09:36:37.616Z,1029.97
2017-02-15T09:37:37.555Z,1029.98
2017-02-15T09:38:37.490Z,1030.01
2017-02-15T09:39:37.427Z,1030.03
2017-02-15T09:40:37.364Z,1030.05
2017-02-15T09:41:37.299Z,1030.03
2017-02-15T09:42:37.235Z,1030.05
2017-02-15T09:43:37.171Z,1030.02
2017-02-15T09:44:37.110Z,1030.05
2017-02-15T09:45:37.047Z,1030.01
2017-02-15T09:46:36.982Z,1030.05
2017-02-15T09:47:36.916Z,1030.04
2017-02-15T09:48:36.853Z,1030.03
2017-02-15T09:49:36.790Z,1029.97
2017-02-15T09:50:36.728Z,1029.99
2017-02-15T09:51:36.913Z,1029.97
2017-02-15T09:52:36.599Z,1029.99
2017-02-15T09:53:36.550Z,1029.99
2017-02-15T09:54:36.482Z,1029.97
2017-02-15T09:55:36.657Z,1030.02
2017-02-15T09:56:36.345Z,1029.99
2017-02-15T09:57:36.287Z,1030
2017-02-15T09:58:36.254Z,1030.08
2017-02-15T09:59:36.166Z,1030.04
2017-02-15T10:00:36.099Z,1030.05
2017-02-15T10:01:36.026Z,1030.04
2017-02-15T10:02:35.964Z,1030
2017-02-15T10:03:35.900Z,1030.06
2017-02-15T10:04:35.835Z,1030.04
2017-02-15T10:05:35.773Z,1030.07
2017-02-15T10:06:35.709Z,1030.1
2017-02-15T10:07:35.647Z,1030.06
2017-02-15T10:08:35.581Z,1030.1
2017-02-15T10:09:35.517Z,1030.08
2017-02-15T10:10:35.455Z,1030.01
2017-02-15T10:11:35.390Z,1030
2017-02-15T10:12:35.327Z,1030.01
2017-02-15T10:13:35.263Z,1030
2017-02-15T10:14:35.203Z,1030.02
2017-02-15T10:15:35.135Z,1030.05
2017-02-15T10:16:35.075Z,1030.04
2017-02-15T10:17:35.311Z,1030.09
2017-02-15T10:18:35.098Z,1030.01
2017-02-15T10:19:34.882Z,1030
2017-02-15T10:20:34.817Z,1030.03
2017-02-15T10:21:34.755Z,1029.97
2017-02-15T10:22:34.692Z,1029.97
2017-02-15T10:23:34.636Z,1029.93
2017-02-15T10:24:34.565Z,1030
2017-02-15T10:25:34.754Z,1029.96
2017-02-15T10:26:34.437Z,1029.94
2017-02-15T10:27:34.373Z,1029.93
2017-02-15T10:28:34.311Z,1029.95
2017-02-15T10:29:34.247Z,1029.95
2017-02-15T10:30:34.184Z,1029.99
2017-02-15T10:31:34.120Z,1029.96
2017-02-15T10:32:34.057Z,1029.94
2017-02-15T10:33:33.995Z,1029.96
2017-02-15T10:34:33.931Z,1029.9
2017-02-15T10:35:33.866Z,1029.93
2017-02-15T10:36:33.807Z,1029.9
2017-02-15T10:37:33.773Z,1029.9
2017-02-15T10:38:33.678Z,1029.91
2017-02-15T10:39:33.612Z,1029.95
2017-02-15T10:40:33.548Z,1029.95
2017-02-15T10:41:33.487Z,1029.97
2017-02-15T10:42:33.422Z,1029.97
2017-02-15T10:43:33.370Z,1030
2017-02-15T10:44:33.295Z,1030.02
2017-02-15T10:45:33.233Z,1029.98
2017-02-15T10:46:33.179Z,1029.96
2017-02-15T10:47:33.104Z,1029.96
2017-02-15T10:48:33.040Z,1029.96
2017-02-15T10:49:32.978Z,1029.9
2017-02-15T10:50:33.213Z,1029.94
2017-02-15T10:51:32.849Z,1029.91
2017-02-15T10:52:32.787Z,1029.9
2017-02-15T10:53:32.973Z,1029.89
2017-02-15T10:54:32.661Z,1029.9
2017-02-15T10:55:32.595Z,1029.83
2017-02-15T10:56:32.533Z,1029.84
2017-02-15T10:57:32.494Z,1029.81
2017-02-15T10:58:32.409Z,1029.82
2017-02-15T10:59:32.593Z,1029.82
2017-02-15T11:00:32.284Z,1029.83
2017-02-15T11:01:32.215Z,1029.87
2017-02-15T11:02:32.152Z,1029.84
2017-02-15T11:03:32.088Z,1029.84
2017-02-15T11:04:32.029Z,1029.82
2017-02-15T11:05:31.963Z,1029.82
2017-02-15T11:06:31.897Z,1029.83
2017-02-15T11:07:31.833Z,1029.86
2017-02-15T11:08:31.770Z,1029.83
2017-02-15T11:09:31.706Z,1029.86
2017-02-15T11:10:31.643Z,1029.85
2017-02-15T11:11:31.578Z,1029.88
2017-02-15T11:12:31.515Z,1029.89
2017-02-15T11:13:31.452Z,1029.85
2017-02-15T11:14:31.388Z,1029.82
2017-02-15T11:15:31.325Z,1029.88
2017-02-15T11:16:31.262Z,1029.84
2017-02-15T11:17:31.197Z,1029.83
2017-02-15T11:18:31.134Z,1029.84
2017-02-15T11:19:31.071Z,1029.88
2017-02-15T11:20:31.009Z,1029.88
2017-02-15T11:21:30.942Z,1029.85
2017-02-15T11:22:30.880Z,1029.87
2017-02-15T11:23:30.817Z,1029.83
2017-02-15T11:24:30.787Z,1029.82
2017-02-15T11:25:30.941Z,1029.81
2017-02-15T11:26:30.627Z,1029.82
2017-02-15T11:27:30.564Z,1029.81
2017-02-15T11:28:30.500Z,1029.79
2017-02-15T11:29:30.435Z,1029.76
2017-02-15T11:30:30.373Z,1029.74
2017-02-15T11:31:30.311Z,1029.76
2017-02-15T11:32:30.246Z,1029.75
2017-02-15T11:33:30.183Z,1029.74
2017-02-15T11:34:30.119Z,1029.68
2017-02-15T11:35:30.055Z,1029.71
2017-02-15T11:36:29.991Z,1029.69
2017-02-15T11:37:29.943Z,1029.69
2017-02-15T11:38:29.866Z,1029.7
2017-02-15T11:39:29.802Z,1029.66
2017-02-15T11:40:29.740Z,1029.65
2017-02-15T11:41:29.676Z,1029.66
2017-02-15T11:42:29.613Z,1029.65
2017-02-15T11:43:29.550Z,1029.66
2017-02-15T11:44:29.486Z,1029.66
2017-02-15T11:45:29.423Z,1029.63
2017-02-15T11:46:29.360Z,1029.62
2017-02-15T11:47:29.297Z,1029.64
2017-02-15T11:48:29.233Z,1029.62
2017-02-15T11:49:29.176Z,1029.6
2017-02-15T11:50:29.106Z,1029.57
2017-02-15T11:51:29.048Z,1029.52
2017-02-15T11:52:28.992Z,1029.49
2017-02-15T11:53:28.917Z,1029.53
2017-02-15T11:54:28.855Z,1029.5
2017-02-15T11:55:28.793Z,1029.47
2017-02-15T11:56:28.728Z,1029.51
2017-02-15T11:57:28.663Z,1029.47
2017-02-15T11:58:28.601Z,1029.46
2017-02-15T11:59:28.538Z,1029.48
2017-02-15T12:00:28.475Z,1029.44
2017-02-15T12:01:28.412Z,1029.41
2017-02-15T12:02:28.348Z,1029.38
2017-02-15T12:03:28.286Z,1029.38
2017-02-15T12:04:28.223Z,1029.34
2017-02-15T12:05:28.161Z,1029.3
2017-02-15T12:06:28.096Z,1029.28
2017-02-15T12:07:28.034Z,1029.23
2017-02-15T12:08:27.970Z,1029.18
2017-02-15T12:09:27.908Z,1029.19